Church Creek, Maryland
Current Conditions -  °F | °C
As of 2:02 AM on Monday 24 Nov 2014 (Local Time) from KCGE Reporting Station
Overcast Overcast  
Wind Chill: 63°   Ceiling: 800
Heat Index: 63°   Visibility: 7mi
Dew Point: 59°   Wind: 22mph
Humidity: 88%   Direction: 160°SSE
Pressure: 29.73"   Gusts: 36mph
Location:  38.5°N, 76.15°W
Report Text: KCGE 240702Z AUTO 16019G31KT 7SM OVC008 17/15 A2973 RMK AO1
Loading
Personal Weather Stations






























Interactive Weather Map New forecast layout! Learn more

10-Day Weather Forecast

Advertisements
Track Severe Weather on mobile